createdAt,value
2023-04-16T00:01:12.204Z,100871.56
2023-04-16T00:03:38.735Z,100871.59
2023-04-16T00:06:05.553Z,100875.81
2023-04-16T00:08:31.847Z,100874.94
2023-04-16T00:10:58.195Z,100875.00
2023-04-16T00:13:24.477Z,100876.63
2023-04-16T00:15:50.793Z,100878.28
2023-04-16T00:18:17.119Z,100887.66
2023-04-16T00:20:43.458Z,100880.84
2023-04-16T00:23:09.741Z,100880.00
2023-04-16T00:25:36.081Z,100887.69
2023-04-16T00:28:02.426Z,100888.53
2023-04-16T00:30:28.769Z,100887.66
2023-04-16T00:32:58.052Z,100889.41
2023-04-16T00:35:24.384Z,100880.81
2023-04-16T00:37:50.671Z,100882.50
2023-04-16T00:40:17.127Z,100884.22
2023-04-16T00:42:43.444Z,100894.44
2023-04-16T00:45:10.671Z,100888.47
2023-04-16T00:47:37.141Z,100890.19
2023-04-16T00:50:04.463Z,100886.78
2023-04-16T00:52:32.607Z,100892.78
2023-04-16T00:54:59.269Z,100886.81
2023-04-16T00:57:25.575Z,100895.31
2023-04-16T00:59:51.924Z,100888.47
2023-04-16T01:02:18.404Z,100890.19
2023-04-16T01:04:44.827Z,100893.63
2023-04-16T01:07:11.194Z,100895.34
2023-04-16T01:09:37.504Z,100891.06
2023-04-16T01:12:03.937Z,100900.41
2023-04-16T01:14:30.293Z,100897.88
2023-04-16T01:16:56.654Z,100901.31
2023-04-16T01:19:22.955Z,100901.31
2023-04-16T01:21:49.261Z,100899.66
2023-04-16T01:24:15.565Z,100909.88
2023-04-16T01:26:41.881Z,100912.44
2023-04-16T01:29:08.426Z,100900.47
2023-04-16T01:31:35.160Z,100903.03
2023-04-16T01:34:01.528Z,100910.72
2023-04-16T01:36:27.819Z,100912.44
2023-04-16T01:38:54.130Z,100917.47
2023-04-16T01:41:20.398Z,100908.94
2023-04-16T01:43:46.771Z,100915.75
2023-04-16T01:46:26.942Z,100914.13
2023-04-16T01:48:53.847Z,100912.38
2023-04-16T01:51:20.881Z,100914.13
2023-04-16T01:53:47.313Z,100917.56
2023-04-16T01:56:13.615Z,100917.50
2023-04-16T01:58:39.927Z,100918.41
2023-04-16T02:01:06.251Z,100918.34
2023-04-16T02:03:32.942Z,100921.75
2023-04-16T02:05:59.523Z,100925.16
2023-04-16T02:08:25.842Z,100919.22
2023-04-16T02:10:52.333Z,100921.84
2023-04-16T02:13:20.182Z,100924.44
2023-04-16T02:15:50.564Z,100923.53
2023-04-16T02:18:17.033Z,100923.47
2023-04-16T02:20:44.801Z,100931.94
2023-04-16T02:23:11.947Z,100931.94
2023-04-16T02:25:40.974Z,100929.41
2023-04-16T02:28:11.562Z,100929.41
2023-04-16T02:30:39.128Z,100925.97
2023-04-16T02:33:06.543Z,100940.44
2023-04-16T02:35:36.769Z,100938.75
2023-04-16T02:38:04.209Z,100943.00
2023-04-16T02:40:30.976Z,100935.31
2023-04-16T02:42:57.895Z,100938.75
2023-04-16T02:45:24.826Z,100937.06
2023-04-16T02:47:51.430Z,100935.44
2023-04-16T02:50:18.055Z,100942.19
2023-04-16T02:52:44.464Z,100945.56
2023-04-16T02:55:11.358Z,100941.28
2023-04-16T02:57:37.656Z,100943.84
2023-04-16T03:00:04.465Z,100948.97
2023-04-16T03:02:31.005Z,100948.97
2023-04-16T03:04:57.496Z,100940.47
2023-04-16T03:07:23.872Z,100950.78
2023-04-16T03:09:50.156Z,100946.50
2023-04-16T03:12:24.806Z,100953.25
2023-04-16T03:14:51.518Z,100960.09
2023-04-16T03:17:18.106Z,100959.19
2023-04-16T03:19:44.430Z,100964.28
2023-04-16T03:22:10.755Z,100956.66
2023-04-16T03:24:37.091Z,100963.53
2023-04-16T03:27:03.518Z,100955.78
2023-04-16T03:29:29.848Z,100964.28
2023-04-16T03:31:56.170Z,100966.88
2023-04-16T03:34:22.472Z,100962.50
2023-04-16T03:36:48.795Z,100965.06
2023-04-16T03:39:15.097Z,100972.84
2023-04-16T03:41:41.398Z,100972.69
2023-04-16T03:44:07.730Z,100970.97
2023-04-16T03:46:34.111Z,100966.72
2023-04-16T03:49:03.435Z,100980.31
2023-04-16T03:51:29.744Z,100974.25
2023-04-16T03:53:56.061Z,100976.00
2023-04-16T03:56:22.395Z,100986.16
2023-04-16T03:58:48.703Z,100990.44
2023-04-16T04:01:15.009Z,100994.66
2023-04-16T04:03:41.563Z,100991.22
2023-04-16T04:06:08.896Z,100997.97
2023-04-16T04:08:35.415Z,101003.06
2023-04-16T04:11:01.753Z,101001.38
2023-04-16T04:13:28.099Z,101003.88
2023-04-16T04:15:54.443Z,101008.97
2023-04-16T04:18:20.837Z,101013.22
2023-04-16T04:20:47.195Z,101014.91
2023-04-16T04:23:13.489Z,101016.69
2023-04-16T04:25:39.792Z,101013.16
2023-04-16T04:28:06.082Z,101018.22
2023-04-16T04:30:32.438Z,101017.31
2023-04-16T04:32:58.806Z,101025.00
2023-04-16T04:35:25.177Z,101016.50
2023-04-16T04:37:51.466Z,101019.94
2023-04-16T04:40:17.785Z,101022.44
2023-04-16T04:42:44.140Z,101018.97
2023-04-16T04:45:10.807Z,101020.66
2023-04-16T04:47:37.213Z,101027.47
2023-04-16T04:50:03.836Z,101024.09
2023-04-16T04:52:30.114Z,101035.97
2023-04-16T04:54:57.149Z,101033.50
2023-04-16T04:57:23.558Z,101029.28
2023-04-16T04:59:49.877Z,101042.94
2023-04-16T05:02:16.319Z,101042.88
2023-04-16T05:04:42.724Z,101047.97
2023-04-16T05:07:09.083Z,101046.22
2023-04-16T05:09:35.446Z,101044.53
2023-04-16T05:12:01.816Z,101046.19
2023-04-16T05:14:28.187Z,101052.19
2023-04-16T05:16:54.516Z,101058.94
2023-04-16T05:19:20.917Z,101054.69
2023-04-16T05:21:47.229Z,101066.63
2023-04-16T05:24:15.003Z,101059.75
2023-04-16T05:26:41.446Z,101066.59
2023-04-16T05:29:07.944Z,101074.38
2023-04-16T05:31:34.380Z,101067.47
2023-04-16T05:34:00.744Z,101070.00
2023-04-16T05:36:27.578Z,101072.69
2023-04-16T05:38:53.901Z,101074.28
2023-04-16T05:41:20.194Z,101081.16
2023-04-16T05:43:46.472Z,101080.28
2023-04-16T05:46:12.851Z,101081.19
2023-04-16T05:48:39.216Z,101080.38
2023-04-16T05:51:05.656Z,101083.75
2023-04-16T05:53:32.048Z,101086.16
2023-04-16T05:55:58.317Z,101093.94
2023-04-16T05:58:24.643Z,101091.38
2023-04-16T06:00:51.058Z,101095.69
2023-04-16T06:03:17.421Z,101093.22
2023-04-16T06:05:44.372Z,101088.06
2023-04-16T06:08:10.948Z,101099.06
2023-04-16T06:10:37.472Z,101097.53
2023-04-16T06:13:03.774Z,101089.81
2023-04-16T06:15:30.090Z,101103.44
2023-04-16T06:17:56.755Z,101103.50
2023-04-16T06:20:23.474Z,101108.69
2023-04-16T06:22:49.908Z,101106.91
2023-04-16T06:25:18.010Z,101114.69
2023-04-16T06:27:44.581Z,101109.56
2023-04-16T06:30:15.770Z,101114.66
2023-04-16T06:32:43.537Z,101114.69
2023-04-16T06:35:10.255Z,101119.81
2023-04-16T06:37:36.612Z,101122.47
2023-04-16T06:40:03.015Z,101125.88
2023-04-16T06:42:29.507Z,101127.59
2023-04-16T06:44:55.931Z,101120.88
2023-04-16T06:47:22.356Z,101125.84
2023-04-16T06:49:48.654Z,101115.63
2023-04-16T06:52:15.025Z,101125.09
2023-04-16T06:54:44.150Z,101130.25
2023-04-16T06:57:10.433Z,101131.09
2023-04-16T06:59:36.757Z,101132.84
2023-04-16T07:02:03.214Z,101136.25
2023-04-16T07:04:29.664Z,101135.50
2023-04-16T07:06:55.961Z,101138.09
2023-04-16T07:09:22.277Z,101131.25
2023-04-16T07:11:48.612Z,101138.13
2023-04-16T07:14:14.946Z,101134.63
2023-04-16T07:16:41.302Z,101144.06
2023-04-16T07:19:07.779Z,101140.59
2023-04-16T07:21:34.415Z,101150.00
2023-04-16T07:24:00.758Z,101148.41
2023-04-16T07:26:27.105Z,101148.44
2023-04-16T07:28:53.435Z,101153.53
2023-04-16T07:31:19.915Z,101156.13
2023-04-16T07:33:46.309Z,101159.47
2023-04-16T07:36:12.613Z,101157.84
2023-04-16T07:38:38.928Z,101161.25
2023-04-16T07:41:05.400Z,101160.44
2023-04-16T07:43:31.703Z,101174.94
2023-04-16T07:45:58.020Z,101168.13
2023-04-16T07:48:24.442Z,101169.81
2023-04-16T07:50:50.776Z,101177.47
2023-04-16T07:53:17.084Z,101169.72
2023-04-16T07:55:43.506Z,101178.19
2023-04-16T07:58:09.852Z,101184.13
2023-04-16T08:00:36.260Z,101179.06
2023-04-16T08:03:02.743Z,101176.44
2023-04-16T08:05:29.422Z,101182.50
2023-04-16T08:07:55.881Z,101184.25
2023-04-16T08:10:22.306Z,101192.78
2023-04-16T08:12:48.807Z,101191.91
2023-04-16T08:15:15.147Z,101188.53
2023-04-16T08:17:41.461Z,101191.13
2023-04-16T08:20:08.194Z,101200.63
2023-04-16T08:22:34.517Z,101199.75
2023-04-16T08:25:02.835Z,101202.31
2023-04-16T08:27:29.225Z,101205.69
2023-04-16T08:29:55.972Z,101206.56
2023-04-16T08:32:26.114Z,101204.88
2023-04-16T08:34:52.504Z,101214.28
2023-04-16T08:37:18.836Z,101211.72
2023-04-16T08:39:45.132Z,101223.63
2023-04-16T08:42:18.877Z,101224.56
2023-04-16T08:44:49.249Z,101224.47
2023-04-16T08:47:16.390Z,101228.66
2023-04-16T08:49:45.683Z,101231.28
2023-04-16T08:52:18.414Z,101227.88
2023-04-16T08:55:00.014Z,101233.72
2023-04-16T08:57:33.940Z,101229.47
2023-04-16T09:00:03.550Z,101237.19
2023-04-16T09:02:31.186Z,101239.72
2023-04-16T09:05:00.025Z,101232.13
2023-04-16T09:07:29.428Z,101234.81
2023-04-16T09:09:59.450Z,101235.72
2023-04-16T09:12:26.175Z,101235.00
2023-04-16T09:14:52.640Z,101241.94
2023-04-16T09:17:19.563Z,101244.72
2023-04-16T09:19:46.311Z,101243.75
2023-04-16T09:22:12.676Z,101248.13
2023-04-16T09:24:39.056Z,101253.28
2023-04-16T09:27:05.662Z,101250.81
2023-04-16T09:29:39.797Z,101260.25
2023-04-16T09:32:08.654Z,101256.88
2023-04-16T09:34:53.622Z,101256.91
2023-04-16T09:37:20.375Z,101260.25
2023-04-16T09:39:54.802Z,101262.84
2023-04-16T09:42:23.364Z,101260.34
2023-04-16T09:44:49.961Z,101267.97
2023-04-16T09:47:16.336Z,101269.63
2023-04-16T09:49:45.450Z,101273.91
2023-04-16T09:52:19.976Z,101270.56
2023-04-16T09:54:50.935Z,101275.59
2023-04-16T09:57:22.691Z,101279.13
2023-04-16T09:59:53.552Z,101278.25
2023-04-16T10:02:20.299Z,101274.75
2023-04-16T10:04:51.650Z,101276.47
2023-04-16T10:07:18.931Z,101279.81
2023-04-16T10:09:47.113Z,101278.16
2023-04-16T10:12:13.432Z,101275.66
2023-04-16T10:14:40.143Z,101281.66
2023-04-16T10:17:07.078Z,101286.78
2023-04-16T10:19:33.781Z,101287.78
2023-04-16T10:22:00.326Z,101288.78
2023-04-16T10:24:28.295Z,101289.78
2023-04-16T10:26:55.263Z,101291.47
2023-04-16T10:29:22.488Z,101283.97
2023-04-16T10:31:50.115Z,101278.16
2023-04-16T10:34:17.675Z,101279.94
2023-04-16T10:36:49.072Z,101283.97
2023-04-16T10:39:19.014Z,101285.69
2023-04-16T10:41:45.662Z,101282.38
2023-04-16T10:44:12.294Z,101291.56
2023-04-16T10:46:43.135Z,101289.97
2023-04-16T10:49:22.626Z,101285.00
2023-04-16T10:51:53.289Z,101283.34
2023-04-16T10:54:23.773Z,101294.66
2023-04-16T10:56:50.554Z,101287.06
2023-04-16T10:59:21.524Z,101292.19
2023-04-16T11:01:50.854Z,101293.03
2023-04-16T11:04:20.144Z,101298.13
2023-04-16T11:07:07.778Z,101301.44
2023-04-16T11:09:57.002Z,101298.03
2023-04-16T11:12:33.230Z,101310.78
2023-04-16T11:15:03.961Z,101307.38
2023-04-16T11:17:38.005Z,101303.09
2023-04-16T11:20:25.710Z,101309.19
2023-04-16T11:22:56.712Z,101316.03
2023-04-16T11:25:28.508Z,101312.59
2023-04-16T11:27:55.142Z,101307.50
2023-04-16T11:30:35.213Z,101310.06
2023-04-16T11:33:08.689Z,101312.66
2023-04-16T11:35:35.483Z,101314.44
2023-04-16T11:38:01.891Z,101315.28
2023-04-16T11:40:31.388Z,101324.66
2023-04-16T11:43:13.480Z,101315.19
2023-04-16T11:45:53.323Z,101313.41
2023-04-16T11:48:19.720Z,101321.09
2023-04-16T11:50:55.973Z,101326.31
2023-04-16T11:53:24.181Z,101317.84
2023-04-16T11:55:50.618Z,101327.25
2023-04-16T11:58:17.015Z,101328.91
2023-04-16T12:00:43.870Z,101329.78
2023-04-16T12:03:10.558Z,101328.94
2023-04-16T12:05:39.231Z,101328.97
2023-04-16T12:08:09.966Z,101337.47
2023-04-16T12:10:52.208Z,101338.31
2023-04-16T12:13:18.735Z,101339.94
2023-04-16T12:15:56.182Z,101341.59
2023-04-16T12:18:25.109Z,101344.03
2023-04-16T12:20:51.522Z,101349.91
2023-04-16T12:23:31.148Z,101349.84
2023-04-16T12:25:58.221Z,101350.81
2023-04-16T12:28:31.791Z,101349.09
2023-04-16T12:30:58.247Z,101346.47
2023-04-16T12:33:24.891Z,101343.06
2023-04-16T12:35:51.241Z,101356.00
2023-04-16T12:38:17.576Z,101355.94
2023-04-16T12:40:43.955Z,101354.13
2023-04-16T12:43:10.601Z,101354.06
2023-04-16T12:45:38.086Z,101358.31
2023-04-16T12:48:04.562Z,101363.28
2023-04-16T12:50:31.164Z,101358.13
2023-04-16T12:52:58.421Z,101361.59
2023-04-16T12:55:25.388Z,101362.34
2023-04-16T12:57:52.110Z,101360.59
2023-04-16T13:00:19.650Z,101366.41
2023-04-16T13:02:46.284Z,101370.59
2023-04-16T13:05:12.869Z,101370.53
2023-04-16T13:07:39.207Z,101374.69
2023-04-16T13:10:06.374Z,101372.97
2023-04-16T13:12:32.576Z,101372.94
2023-04-16T13:14:59.109Z,101371.25
2023-04-16T13:17:25.424Z,101384.03
2023-04-16T13:19:51.737Z,101376.34
2023-04-16T13:22:18.126Z,101385.69
2023-04-16T13:24:44.546Z,101382.22
2023-04-16T13:27:10.933Z,101374.50
2023-04-16T13:32:14.133Z,101381.47
2023-04-16T13:34:40.688Z,101373.81
2023-04-16T13:37:07.159Z,101391.03
2023-04-16T13:39:33.618Z,101378.16
2023-04-16T13:41:59.995Z,101390.16
2023-04-16T13:44:28.657Z,101384.34
2023-04-16T13:46:55.081Z,101387.63
2023-04-16T13:49:21.536Z,101383.44
2023-04-16T13:51:47.929Z,101383.50
2023-04-16T13:54:14.231Z,101391.34
2023-04-16T13:56:40.555Z,101376.97
2023-04-16T13:59:09.027Z,101383.81
2023-04-16T14:01:35.565Z,101382.91
2023-04-16T14:04:01.984Z,101378.63
2023-04-16T14:06:31.011Z,101382.09
2023-04-16T14:08:57.300Z,101384.72
2023-04-16T14:11:23.651Z,101384.81
2023-04-16T14:13:50.058Z,101377.84
2023-04-16T14:16:16.433Z,101387.28
2023-04-16T14:18:42.841Z,101393.31
2023-04-16T14:21:09.204Z,101386.47
2023-04-16T14:23:35.522Z,101383.09
2023-04-16T14:26:01.893Z,101384.00
2023-04-16T14:28:31.000Z,101385.66
2023-04-16T14:30:57.462Z,101389.06
2023-04-16T14:33:23.777Z,101394.28
2023-04-16T14:35:50.254Z,101390.81
2023-04-16T14:38:16.647Z,101389.97
2023-04-16T14:40:43.009Z,101385.66
2023-04-16T14:45:44.504Z,101394.91
2023-04-16T14:48:10.835Z,101399.97
2023-04-16T14:50:37.211Z,101403.41
2023-04-16T14:53:06.667Z,101396.34
2023-04-16T14:55:33.045Z,101406.47
2023-04-16T14:57:59.600Z,101403.00
2023-04-16T15:00:26.078Z,101403.72
2023-04-16T15:02:53.441Z,101401.19
2023-04-16T15:05:19.955Z,101403.66
2023-04-16T15:07:46.277Z,101403.66
2023-04-16T15:10:13.291Z,101399.31
2023-04-16T15:12:39.835Z,101403.63
2023-04-16T15:15:07.511Z,101402.75
2023-04-16T15:17:33.933Z,101407.91
2023-04-16T15:20:02.331Z,101407.84
2023-04-16T15:22:31.206Z,101405.16
2023-04-16T15:24:57.512Z,101404.38
2023-04-16T15:27:23.870Z,101414.63
2023-04-16T15:29:50.159Z,101413.84
2023-04-16T15:32:16.700Z,101407.84
2023-04-16T15:34:43.064Z,101411.28
2023-04-16T15:37:09.428Z,101416.34
2023-04-16T15:39:35.782Z,101412.91
2023-04-16T15:42:06.548Z,101421.41
2023-04-16T15:44:34.562Z,101418.84
2023-04-16T15:47:00.947Z,101427.41
2023-04-16T15:49:27.258Z,101424.78
2023-04-16T15:51:53.741Z,101429.91
2023-04-16T15:54:20.214Z,101436.78
2023-04-16T15:56:47.003Z,101435.84
2023-04-16T15:59:13.460Z,101436.63
2023-04-16T16:01:39.868Z,101441.72
2023-04-16T16:04:07.359Z,101442.50
2023-04-16T16:06:34.294Z,101442.44
2023-04-16T16:09:00.609Z,101452.63
2023-04-16T16:11:27.442Z,101445.03
2023-04-16T16:13:53.765Z,101437.25
2023-04-16T16:16:20.105Z,101439.81
2023-04-16T16:18:46.450Z,101436.44
2023-04-16T16:21:12.758Z,101445.78
2023-04-16T16:23:39.029Z,101449.16
2023-04-16T16:26:05.338Z,101453.34
2023-04-16T16:28:32.110Z,101446.53
2023-04-16T16:30:58.400Z,101457.53
2023-04-16T16:33:24.737Z,101448.22
2023-04-16T16:35:52.334Z,101461.81
2023-04-16T16:38:18.702Z,101460.81
2023-04-16T16:40:44.989Z,101459.06
2023-04-16T16:43:11.305Z,101463.31
2023-04-16T16:45:38.463Z,101461.53
2023-04-16T16:48:04.857Z,101461.56
2023-04-16T16:50:32.164Z,101466.75
2023-04-16T16:52:59.387Z,101468.34
2023-04-16T16:55:26.318Z,101474.97
2023-04-16T16:57:53.102Z,101470.72
2023-04-16T17:00:19.624Z,101484.25
2023-04-16T17:02:46.376Z,101481.72
2023-04-16T17:05:12.845Z,101480.91
2023-04-16T17:07:39.219Z,101481.63
2023-04-16T17:10:06.984Z,101485.91
2023-04-16T17:12:33.498Z,101489.25
2023-04-16T17:14:59.840Z,101490.03
2023-04-16T17:17:26.957Z,101497.81
2023-04-16T17:19:53.525Z,101493.44
2023-04-16T17:22:22.187Z,101492.44
2023-04-16T17:24:50.652Z,101497.50
2023-04-16T17:27:16.943Z,101500.88
2023-04-16T17:29:43.535Z,101504.25
2023-04-16T17:32:10.048Z,101505.09
2023-04-16T17:34:36.423Z,101505.91
2023-04-16T17:37:02.737Z,101510.13
2023-04-16T17:39:29.118Z,101506.66
2023-04-16T17:41:55.409Z,101510.88
2023-04-16T17:44:21.704Z,101516.81
2023-04-16T17:46:48.015Z,101524.47
2023-04-16T17:49:14.361Z,101518.41
2023-04-16T17:51:41.543Z,101525.25
2023-04-16T17:54:09.392Z,101526.09
2023-04-16T17:56:35.919Z,101534.56
2023-04-16T17:59:02.255Z,101531.94
2023-04-16T18:01:28.730Z,101532.72
2023-04-16T18:03:55.432Z,101536.00
2023-04-16T18:06:22.068Z,101537.72
2023-04-16T18:08:48.352Z,101544.41
2023-04-16T18:11:14.684Z,101542.63
2023-04-16T18:13:41.055Z,101552.84
2023-04-16T18:16:14.235Z,101553.59
2023-04-16T18:18:40.477Z,101550.97
2023-04-16T18:21:06.796Z,101555.06
2023-04-16T18:23:33.146Z,101561.94
2023-04-16T18:25:59.980Z,101557.72
2023-04-16T18:28:27.098Z,101560.22
2023-04-16T18:30:53.443Z,101572.00
2023-04-16T18:33:48.666Z,101567.78
2023-04-16T18:36:03.105Z,101577.97
2023-04-16T18:38:29.596Z,101578.69
2023-04-16T18:40:56.276Z,101576.16
2023-04-16T18:43:22.956Z,101582.06
2023-04-16T18:45:49.434Z,101587.31
2023-04-16T18:48:15.715Z,101593.94
2023-04-16T18:50:42.254Z,101587.97
2023-04-16T18:53:12.222Z,101592.44
2023-04-16T18:58:03.676Z,101593.94
2023-04-16T19:00:30.043Z,101597.53
2023-04-16T19:02:56.447Z,101602.41
2023-04-16T19:05:22.808Z,101594.72
2023-04-16T19:07:49.141Z,101603.16
2023-04-16T19:10:15.519Z,101599.75
2023-04-16T19:12:41.865Z,101600.53
2023-04-16T19:15:11.394Z,101597.94
2023-04-16T19:17:37.746Z,101602.19
2023-04-16T19:20:04.475Z,101606.44
2023-04-16T19:22:30.779Z,101602.19
2023-04-16T19:24:57.128Z,101606.34
2023-04-16T19:27:23.444Z,101606.28
2023-04-16T19:29:49.783Z,101606.28
2023-04-16T19:32:16.115Z,101608.06
2023-04-16T19:34:42.411Z,101608.94
2023-04-16T19:37:08.716Z,101616.50
2023-04-16T19:39:35.056Z,101609.53
2023-04-16T19:42:01.381Z,101606.97
2023-04-16T19:44:27.746Z,101612.16
2023-04-16T19:46:54.055Z,101615.44
2023-04-16T19:49:20.384Z,101619.69
2023-04-16T19:51:46.692Z,101614.56
2023-04-16T19:54:13.049Z,101615.34
2023-04-16T19:56:39.400Z,101614.53
2023-04-16T19:59:05.706Z,101618.78
2023-04-16T20:01:32.057Z,101616.03
2023-04-16T20:03:58.556Z,101617.81
2023-04-16T20:06:24.862Z,101622.88
2023-04-16T20:08:51.165Z,101625.38
2023-04-16T20:11:17.490Z,101628.75
2023-04-16T20:13:47.468Z,101625.28
2023-04-16T20:16:14.032Z,101629.47
2023-04-16T20:18:40.671Z,101629.38
2023-04-16T20:21:07.756Z,101628.47
2023-04-16T20:23:34.080Z,101625.97
2023-04-16T20:26:00.509Z,101623.41
2023-04-16T20:28:26.898Z,101626.78
2023-04-16T20:30:53.217Z,101623.38
2023-04-16T20:33:19.532Z,101624.22
2023-04-16T20:35:46.976Z,101621.69
2023-04-16T20:38:13.286Z,101629.31
2023-04-16T20:40:39.582Z,101631.94
2023-04-16T20:43:05.887Z,101634.56
2023-04-16T20:45:32.260Z,101630.28
2023-04-16T20:47:59.027Z,101634.53
2023-04-16T20:50:25.427Z,101642.13
2023-04-16T20:52:51.862Z,101636.09
2023-04-16T20:55:18.582Z,101636.00
2023-04-16T20:57:44.903Z,101634.22
2023-04-16T21:00:14.985Z,101644.38
2023-04-16T21:02:41.537Z,101644.44
2023-04-16T21:05:08.464Z,101641.84
2023-04-16T21:07:34.844Z,101649.34
2023-04-16T21:10:01.196Z,101644.91
2023-04-16T21:12:27.647Z,101646.63
2023-04-16T21:14:53.966Z,101645.78
2023-04-16T21:17:20.302Z,101648.25
2023-04-16T21:19:46.641Z,101649.16
2023-04-16T21:22:12.939Z,101651.06
2023-04-16T21:24:39.267Z,101649.94
2023-04-16T21:27:05.594Z,101652.59
2023-04-16T21:29:32.527Z,101653.31
2023-04-16T21:31:59.060Z,101643.00
2023-04-16T21:34:25.495Z,101647.16
2023-04-16T21:36:51.863Z,101648.84
2023-04-16T21:39:18.205Z,101645.31
2023-04-16T21:41:44.519Z,101650.50
2023-04-16T21:44:11.056Z,101649.53
2023-04-16T21:46:37.365Z,101651.28
2023-04-16T21:49:03.725Z,101644.34
2023-04-16T21:51:30.018Z,101653.69
2023-04-16T21:53:56.973Z,101647.81
2023-04-16T21:56:24.146Z,101649.41
2023-04-16T21:58:51.666Z,101644.06
2023-04-16T22:01:18.009Z,101646.50
2023-04-16T22:03:44.759Z,101654.94
2023-04-16T22:06:11.256Z,101650.53
2023-04-16T22:08:37.619Z,101646.13
2023-04-16T22:11:03.990Z,101648.63
2023-04-16T22:13:31.062Z,101657.09
2023-04-16T22:15:57.942Z,101658.88
2023-04-16T22:18:24.349Z,101659.53
2023-04-16T22:20:53.052Z,101657.09
2023-04-16T22:23:19.343Z,101660.50
2023-04-16T22:25:45.655Z,101663.00
2023-04-16T22:28:12.017Z,101660.41
2023-04-16T22:30:38.385Z,101664.63
2023-04-16T22:33:04.890Z,101666.31
2023-04-16T22:35:31.266Z,101665.41
2023-04-16T22:37:57.598Z,101671.25
2023-04-16T22:40:24.005Z,101666.03
2023-04-16T22:42:50.363Z,101665.19
2023-04-16T22:45:16.725Z,101673.50
2023-04-16T22:47:43.033Z,101668.19
2023-04-16T22:50:09.629Z,101674.94
2023-04-16T22:52:36.452Z,101672.53
2023-04-16T22:55:02.882Z,101670.91
2023-04-16T22:57:29.196Z,101663.09
2023-04-16T22:59:55.536Z,101668.94
2023-04-16T23:02:21.890Z,101675.72
2023-04-16T23:04:48.305Z,101671.53
2023-04-16T23:07:15.134Z,101666.53
2023-04-16T23:09:41.708Z,101671.50
2023-04-16T23:12:08.267Z,101662.88
2023-04-16T23:14:34.604Z,101668.88
2023-04-16T23:17:00.908Z,101666.28
2023-04-16T23:19:27.203Z,101676.31
2023-04-16T23:21:53.536Z,101675.56
2023-04-16T23:24:19.872Z,101673.00
2023-04-16T23:26:46.218Z,101673.13
2023-04-16T23:29:12.699Z,101670.47
2023-04-16T23:31:39.307Z,101675.44
2023-04-16T23:34:05.657Z,101671.38
2023-04-16T23:36:34.521Z,101672.03
2023-04-16T23:39:00.879Z,101671.19
2023-04-16T23:41:27.226Z,101668.69
2023-04-16T23:43:53.568Z,101674.63
2023-04-16T23:46:19.929Z,101677.25
2023-04-16T23:48:46.274Z,101669.69
2023-04-16T23:51:12.622Z,101671.34
2023-04-16T23:53:38.972Z,101677.34
2023-04-16T23:56:05.658Z,101671.38
2023-04-16T23:58:31.989Z,101668.03
